Cape Sakura — 7JHZ — position and weather

sailwx.info

Track history (hours):
 
Tides and Currents Weather Stations Pressure Air Temp Water Temp Dewpoint Dewpoint Depression Visibility Wind Speed Wind Dir Waves Ship Positions

Cape Sakura

Last reported at 2017-Mar-23 21:34 UTC. Time now 2017-Mar-23 22:18 UTC.
Position N 51°02' E 001°38'.

Length 292 m; draft 10.3 m.

Type: Cargo ship. MMSI: 432786000.

Date/timePositionNaut miles runAvg speedWind from/ knotsBaromVisibWave heightAir tempDewpointWater temp
2017-Mar-23 21:34N 51°02' E 001°38'10 9.7
2017-Mar-23 20:34N 51°03' E 001°53'1111.2
2017-Mar-23 19:34N 51°03' E 002°11'6 5.7
2017-Mar-23 18:34N 51°03' E 002°20'0 0.3
2017-Mar-23 17:34N 51°03' E 002°20'0 0.3
2017-Mar-23 16:31N 51°03' E 002°20'0 0.0
2017-Mar-23 15:31N 51°03' E 002°20'0 0.0
2017-Mar-23 14:31N 51°03' E 002°20'0 0.0
2017-Mar-23 13:31N 51°03' E 002°20'0 0.0
2017-Mar-23 12:33N 51°03' E 002°20'0 0.0
2017-Mar-23 11:31N 51°03' E 002°20'0 0.0
2017-Mar-23 10:31N 51°03' E 002°20'0 0.0
2017-Mar-23 09:31N 51°03' E 002°20'0 0.0
2017-Mar-23 08:31N 51°03' E 002°20'0 0.0
2017-Mar-23 07:31N 51°03' E 002°20'0 0.0
2017-Mar-23 06:31N 51°03' E 002°20'0 0.0
2017-Mar-23 05:28N 51°03' E 002°20'0 0.0
2017-Mar-23 04:31N 51°03' E 002°20'0 0.0
2017-Mar-23 03:31N 51°03' E 002°20'0 0.0
2017-Mar-23 02:31N 51°03' E 002°20'0 0.0
2017-Mar-23 01:31N 51°03' E 002°20'0 0.0
2017-Mar-23 00:31N 51°03' E 002°20'0 0.0
2017-Mar-22 23:31N 51°03' E 002°20'0 0.0
2017-Mar-22 22:31N 51°03' E 002°20'0 0.0
2017-Mar-22 21:31N 51°03' E 002°20'0 0.0
2017-Mar-22 20:31N 51°03' E 002°20'0 0.0
2017-Mar-22 19:28N 51°03' E 002°20'0 0.0
2017-Mar-22 18:28N 51°03' E 002°20'0 0.0
2017-Mar-22 17:31N 51°03' E 002°20'0 0.0
2017-Mar-22 16:32N 51°03' E 002°20'0 0.0
2017-Mar-22 15:31N 51°03' E 002°20'0 0.0
2017-Mar-22 14:31N 51°03' E 002°20'0 0.0
2017-Mar-22 13:31N 51°03' E 002°20'0 0.0
2017-Mar-22 12:31N 51°03' E 002°20'0 0.0
2017-Mar-22 11:31N 51°03' E 002°20'0 0.0
2017-Mar-22 10:31N 51°03' E 002°20'0 0.0
2017-Mar-22 09:31N 51°03' E 002°20'0 0.0
2017-Mar-22 08:31N 51°03' E 002°20'0 0.0
2017-Mar-22 07:28N 51°03' E 002°20'0 0.0
2017-Mar-22 06:31N 51°03' E 002°20'0 0.0
2017-Mar-22 05:31N 51°03' E 002°20'0 0.0
2017-Mar-22 04:28N 51°03' E 002°20'0 0.0
2017-Mar-22 03:31N 51°03' E 002°20'0 0.0
2017-Mar-22 02:28N 51°03' E 002°20'0 0.0
2017-Mar-22 01:31N 51°03' E 002°20'0 0.0
2017-Mar-22 00:28N 51°03' E 002°20'0 0.0
2017-Mar-21 23:31N 51°03' E 002°20'0 0.0
2017-Mar-21 22:31N 51°03' E 002°20'0 0.0
2017-Mar-21 21:31N 51°03' E 002°20'0 0.0
2017-Mar-21 20:28N 51°03' E 002°20'0 0.0
2017-Mar-21 19:31N 51°03' E 002°20'0 0.0
2017-Mar-21 18:31N 51°03' E 002°20'0 0.0
2017-Mar-21 17:31N 51°03' E 002°20'0 0.0
2017-Mar-21 16:31N 51°03' E 002°20'0 0.0
2017-Mar-21 15:31N 51°03' E 002°20'0 0.0
2017-Mar-21 14:31N 51°03' E 002°20'0 0.0
2017-Mar-21 13:31N 51°03' E 002°20'0 0.0
2017-Mar-21 12:31N 51°03' E 002°20'0 0.0
2017-Mar-21 11:31N 51°03' E 002°20'0 0.0
2017-Mar-21 10:31N 51°03' E 002°20'0 0.0
2017-Mar-21 09:31N 51°03' E 002°20'1 0.7
2017-Mar-21 08:33N 51°03' E 002°21'0 0.2
2017-Mar-21 07:33N 51°03' E 002°21'4 3.7
2017-Mar-21 06:33N 51°04' E 002°15'1312.8
2017-Mar-21 05:33N 51°02' E 001°55'5 5.2
2017-Mar-21 04:34N 51°03' E 001°47'0 0.1
2017-Mar-21 03:32N 51°03' E 001°47'0 0.0
2017-Mar-21 02:32N 51°03' E 001°47'0 0.3
2017-Mar-21 01:32N 51°03' E 001°46'0 0.1
2017-Mar-21 00:32N 51°03' E 001°46'0 0.2
2017-Mar-20 23:32N 51°02' E 001°46'0 0.3
2017-Mar-20 22:32N 51°03' E 001°47'0 0.0
2017-Mar-20 21:32N 51°03' E 001°47'0 0.0
2017-Mar-20 20:32N 51°03' E 001°47'0 0.1
2017-Mar-20 19:33N 51°03' E 001°47'2 2.5
2017-Mar-20 18:33N 51°03' E 001°43'9 9.3
2017-Mar-20 17:33N 50°56' E 001°32'1312.8
2017-Mar-20 16:33N 50°45' E 001°23'2911.6
2017-Mar-20 14:05N 50°28' E 000°47'1313.2
2017-Mar-20 13:04N 50°24' E 000°26'713.6
2017-Mar-20 12:33N 50°23' E 000°16'1313.3
2017-Mar-20 11:33N 50°19' W 000°04'1413.1
2017-Mar-20 10:29N 50°15' W 000°25'1212.6
2017-Mar-20 09:33N 50°12' W 000°43'1211.8
2017-Mar-20 08:33N 50°09' W 001°01'1111.0
2017-Mar-20 07:33N 50°06' W 001°17'1010.4
2017-Mar-20 06:33N 50°03' W 001°33'1010.0
2017-Mar-20 05:33N 50°00' W 001°48'1110.5
2017-Mar-20 04:33N 49°58' W 002°04'2411.8
2017-Mar-20 02:32N 49°51' W 002°40'1212.7
2017-Mar-20 01:33N 49°48' W 002°58'1312.8
2017-Mar-20 00:33N 49°42' W 003°15'1312.7
2017-Mar-19 23:33N 49°35' W 003°32'5412.8
2017-Mar-19 19:18N 49°07' W 004°43'1012.8
2017-Mar-19 18:32N 49°02' W 004°56'1110.7
2017-Mar-19 17:33N 48°57' W 005°10'1111.2
2017-Mar-19 16:34N 48°52' W 005°26'1411.0
2017-Mar-19 15:17N 48°43' W 005°42'2910.7
2017-Mar-19 12:33N 48°15' W 005°55'1110.3
2017-Mar-19 11:31N 48°04' W 005°56'1110.2
2017-Mar-19 10:25N 47°53' W 005°55'2010.3
2017-Mar-19 08:28N 47°33' W 005°50'1110.3
2017-Mar-19 07:25N 47°23' W 005°46'910.9
2017-Mar-19 06:33N 47°13' W 005°46'1211.8
2017-Mar-19 05:33N 47°02' W 005°51'1111.0
2017-Mar-19 04:33N 46°51' W 005°51'1110.9
2017-Mar-19 03:33N 46°40' W 005°50'1110.8
2017-Mar-19 02:30N 46°29' W 005°49'14910.6
2017-Mar-18 12:28N 43°60' W 005°39'1010.8
2017-Mar-18 11:33N 43°50' W 005°38'1110.7
2017-Mar-18 10:32N 43°39' W 005°37'6 6.2
2017-Mar-18 09:33N 43°34' W 005°41'0 0.0
2017-Mar-18 08:30N 43°34' W 005°41'0 0.0
2017-Mar-18 07:30N 43°34' W 005°41'0 0.0
2017-Mar-18 06:30N 43°34' W 005°41'0 0.0
2017-Mar-18 05:30N 43°34' W 005°41'0 0.0
2017-Mar-18 04:24N 43°34' W 005°41'0 0.0
2017-Mar-18 03:30N 43°34' W 005°41'0 0.0
2017-Mar-18 02:24N 43°34' W 005°41'0 0.0
2017-Mar-18 01:30N 43°34' W 005°41'0 0.0
2017-Mar-17 21:30N 43°34' W 005°41'0 0.0
2017-Mar-17 20:30N 43°34' W 005°41'0 0.0
2017-Mar-17 19:30N 43°34' W 005°41'0 0.0
2017-Mar-17 18:30N 43°34' W 005°41'0 0.0
2017-Mar-17 15:24N 43°34' W 005°41'0 0.0
2017-Mar-17 14:30N 43°34' W 005°41'0 0.0
2017-Mar-17 13:30N 43°34' W 005°41'0 0.0
2017-Mar-17 12:30N 43°34' W 005°41'0 0.0
2017-Mar-17 11:24N 43°34' W 005°41'0 0.0
2017-Mar-17 10:30N 43°34' W 005°41'0 0.0
2017-Mar-17 09:24N 43°34' W 005°41'0 0.0
2017-Mar-17 08:30N 43°34' W 005°41'0 0.0
2017-Mar-17 07:30N 43°34' W 005°41'0 0.0
2017-Mar-17 06:30N 43°34' W 005°41'0 0.0
2017-Mar-17 05:30N 43°34' W 005°41'0 0.0
2017-Mar-17 04:30N 43°34' W 005°41'0 0.0
2017-Mar-17 03:30N 43°34' W 005°41'0 0.0
2017-Mar-17 02:24N 43°34' W 005°41'0 0.0
2017-Mar-17 01:30N 43°34' W 005°41'0 0.0
2017-Mar-16 21:24N 43°34' W 005°41'0 0.0
2017-Mar-16 20:30N 43°34' W 005°41'0 0.0
2017-Mar-16 19:24N 43°34' W 005°41'0 0.0
2017-Mar-16 18:18N 43°34' W 005°41'0 0.0
2017-Mar-16 17:30N 43°34' W 005°41'0 0.0
2017-Mar-16 16:30N 43°34' W 005°41'0 0.0
2017-Mar-16 15:30N 43°34' W 005°41'0 0.0
2017-Mar-16 14:30N 43°34' W 005°41'0 0.0
2017-Mar-16 13:30N 43°34' W 005°41'0 0.0
2017-Mar-16 12:30N 43°34' W 005°41'0 0.0
2017-Mar-16 11:30N 43°34' W 005°41'0 0.0
2017-Mar-16 10:30N 43°34' W 005°41'0 0.0
2017-Mar-16 09:30N 43°34' W 005°41'0 0.0
2017-Mar-16 08:30N 43°34' W 005°41'0 0.0
2017-Mar-16 07:30N 43°34' W 005°41'0 0.0
2017-Mar-16 06:24N 43°34' W 005°41'0 0.0
2017-Mar-16 05:30N 43°34' W 005°41'0 0.0
2017-Mar-16 04:30N 43°34' W 005°41'0 0.0
2017-Mar-16 03:30N 43°34' W 005°41'0 0.0
2017-Mar-16 02:30N 43°34' W 005°41'0 0.0
2017-Mar-16 01:30N 43°34' W 005°41'0 0.0
2017-Mar-15 20:30N 43°34' W 005°41'0 0.0
2017-Mar-15 19:30N 43°34' W 005°41'0 0.0
2017-Mar-15 18:30N 43°34' W 005°41'0 0.0
2017-Mar-15 17:30N 43°34' W 005°41'0 0.0
2017-Mar-15 16:24N 43°34' W 005°41'0 0.0
2017-Mar-15 15:24N 43°34' W 005°41'0 0.0
2017-Mar-15 14:18N 43°34' W 005°41'0 0.0
2017-Mar-15 13:30N 43°34' W 005°41'0 0.0
2017-Mar-15 12:30N 43°34' W 005°41'0 0.0
2017-Mar-15 11:30N 43°34' W 005°41'0 0.0
2017-Mar-15 10:30N 43°34' W 005°41'0 0.0
2017-Mar-15 09:30N 43°34' W 005°41'0 0.0
2017-Mar-15 08:30N 43°34' W 005°41'0 0.0
2017-Mar-15 07:30N 43°34' W 005°41'0 0.0
2017-Mar-15 06:30N 43°34' W 005°41'0 0.0
2017-Mar-15 05:30N 43°34' W 005°41'0 0.0
2017-Mar-15 04:30N 43°34' W 005°41'1 1.1
2017-Mar-15 03:33N 43°35' W 005°40'4 4.0
2017-Mar-15 02:33N 43°39' W 005°40'2 2.0
2017-Mar-15 01:33N 43°41' W 005°39'0 0.5
2017-Mar-15 00:32N 43°41' W 005°39'1 0.5
2017-Mar-14 23:32N 43°41' W 005°38'1 0.3
2017-Mar-14 21:14N 43°42' W 005°38'1 1.5
2017-Mar-14 20:33N 43°41' W 005°37'3 2.6
2017-Mar-14 19:33N 43°39' W 005°35'1 0.6
2017-Mar-14 18:33N 43°39' W 005°34'1 0.5
2017-Mar-14 17:33N 43°39' W 005°33'0 0.3
2017-Mar-14 16:33N 43°39' W 005°33'0 0.3
2017-Mar-14 15:33N 43°40' W 005°33'0 0.4
2017-Mar-14 14:33N 43°40' W 005°34'1 0.5
2017-Mar-14 13:33N 43°40' W 005°34'1 0.6
2017-Mar-14 12:21N 43°41' W 005°34'0 0.6
2017-Mar-14 11:28N 43°41' W 005°35'0 0.5
2017-Mar-14 10:33N 43°42' W 005°35'0 0.4
2017-Mar-14 09:33N 43°42' W 005°36'0 0.3
2017-Mar-14 08:33N 43°42' W 005°36'0 0.2
2017-Mar-14 07:33N 43°42' W 005°36'0 0.2
2017-Mar-14 06:33N 43°42' W 005°36'0 0.3
2017-Mar-14 05:33N 43°43' W 005°36'0 0.4
2017-Mar-14 04:33N 43°43' W 005°37'0 0.5
2017-Mar-14 03:33N 43°44' W 005°37'0 0.3
2017-Mar-14 02:33N 43°44' W 005°37'5 4.8
2017-Mar-14 01:33N 43°41' W 005°32'5 5.2
2017-Mar-14 00:30N 43°38' W 005°25'1 0.8
2017-Mar-13 23:05N 43°39' W 005°26'  
Track history (hours):
 
Tides and Currents Weather Stations Pressure Air Temp Water Temp Dewpoint Dewpoint Depression Visibility Wind Speed Wind Dir Waves Ship Positions

Cape Sakura

Last reported at 2017-Mar-23 21:34 UTC. Time now 2017-Mar-23 22:18 UTC.
Position N 51°02' E 001°38'.

Length 292 m; draft 10.3 m.

Type: Cargo ship. MMSI: 432786000.

Date/timePositionNaut miles runAvg speedWind from/ knotsBaromVisibWave heightAir tempDewpointWater temp
2017-Mar-23 21:34N 51°02' E 001°38'10 9.7
2017-Mar-23 20:34N 51°03' E 001°53'1111.2
2017-Mar-23 19:34N 51°03' E 002°11'6 5.7
2017-Mar-23 18:34N 51°03' E 002°20'0 0.3
2017-Mar-23 17:34N 51°03' E 002°20'0 0.3
2017-Mar-23 16:31N 51°03' E 002°20'0 0.0
2017-Mar-23 15:31N 51°03' E 002°20'0 0.0
2017-Mar-23 14:31N 51°03' E 002°20'0 0.0
2017-Mar-23 13:31N 51°03' E 002°20'0 0.0
2017-Mar-23 12:33N 51°03' E 002°20'0 0.0
2017-Mar-23 11:31N 51°03' E 002°20'0 0.0
2017-Mar-23 10:31N 51°03' E 002°20'0 0.0
2017-Mar-23 09:31N 51°03' E 002°20'0 0.0
2017-Mar-23 08:31N 51°03' E 002°20'0 0.0
2017-Mar-23 07:31N 51°03' E 002°20'0 0.0
2017-Mar-23 06:31N 51°03' E 002°20'0 0.0
2017-Mar-23 05:28N 51°03' E 002°20'0 0.0
2017-Mar-23 04:31N 51°03' E 002°20'0 0.0
2017-Mar-23 03:31N 51°03' E 002°20'0 0.0
2017-Mar-23 02:31N 51°03' E 002°20'0 0.0
2017-Mar-23 01:31N 51°03' E 002°20'0 0.0
2017-Mar-23 00:31N 51°03' E 002°20'0 0.0
2017-Mar-22 23:31N 51°03' E 002°20'0 0.0
2017-Mar-22 22:31N 51°03' E 002°20'0 0.0
2017-Mar-22 21:31N 51°03' E 002°20'0 0.0
2017-Mar-22 20:31N 51°03' E 002°20'0 0.0
2017-Mar-22 19:28N 51°03' E 002°20'0 0.0
2017-Mar-22 18:28N 51°03' E 002°20'0 0.0
2017-Mar-22 17:31N 51°03' E 002°20'0 0.0
2017-Mar-22 16:32N 51°03' E 002°20'0 0.0
2017-Mar-22 15:31N 51°03' E 002°20'0 0.0
2017-Mar-22 14:31N 51°03' E 002°20'0 0.0
2017-Mar-22 13:31N 51°03' E 002°20'0 0.0
2017-Mar-22 12:31N 51°03' E 002°20'0 0.0
2017-Mar-22 11:31N 51°03' E 002°20'0 0.0
2017-Mar-22 10:31N 51°03' E 002°20'0 0.0
2017-Mar-22 09:31N 51°03' E 002°20'0 0.0
2017-Mar-22 08:31N 51°03' E 002°20'0 0.0
2017-Mar-22 07:28N 51°03' E 002°20'0 0.0
2017-Mar-22 06:31N 51°03' E 002°20'0 0.0
2017-Mar-22 05:31N 51°03' E 002°20'0 0.0
2017-Mar-22 04:28N 51°03' E 002°20'0 0.0
2017-Mar-22 03:31N 51°03' E 002°20'0 0.0
2017-Mar-22 02:28N 51°03' E 002°20'0 0.0
2017-Mar-22 01:31N 51°03' E 002°20'0 0.0
2017-Mar-22 00:28N 51°03' E 002°20'0 0.0
2017-Mar-21 23:31N 51°03' E 002°20'0 0.0
2017-Mar-21 22:31N 51°03' E 002°20'0 0.0
2017-Mar-21 21:31N 51°03' E 002°20'0 0.0
2017-Mar-21 20:28N 51°03' E 002°20'0 0.0
2017-Mar-21 19:31N 51°03' E 002°20'0 0.0
2017-Mar-21 18:31N 51°03' E 002°20'0 0.0
2017-Mar-21 17:31N 51°03' E 002°20'0 0.0
2017-Mar-21 16:31N 51°03' E 002°20'0 0.0
2017-Mar-21 15:31N 51°03' E 002°20'0 0.0
2017-Mar-21 14:31N 51°03' E 002°20'0 0.0
2017-Mar-21 13:31N 51°03' E 002°20'0 0.0
2017-Mar-21 12:31N 51°03' E 002°20'0 0.0
2017-Mar-21 11:31N 51°03' E 002°20'0 0.0
2017-Mar-21 10:31N 51°03' E 002°20'0 0.0
2017-Mar-21 09:31N 51°03' E 002°20'1 0.7
2017-Mar-21 08:33N 51°03' E 002°21'0 0.2
2017-Mar-21 07:33N 51°03' E 002°21'4 3.7
2017-Mar-21 06:33N 51°04' E 002°15'1312.8
2017-Mar-21 05:33N 51°02' E 001°55'5 5.2
2017-Mar-21 04:34N 51°03' E 001°47'0 0.1
2017-Mar-21 03:32N 51°03' E 001°47'0 0.0
2017-Mar-21 02:32N 51°03' E 001°47'0 0.3
2017-Mar-21 01:32N 51°03' E 001°46'0 0.1
2017-Mar-21 00:32N 51°03' E 001°46'0 0.2
2017-Mar-20 23:32N 51°02' E 001°46'0 0.3
2017-Mar-20 22:32N 51°03' E 001°47'0 0.0
2017-Mar-20 21:32N 51°03' E 001°47'0 0.0
2017-Mar-20 20:32N 51°03' E 001°47'0 0.1
2017-Mar-20 19:33N 51°03' E 001°47'2 2.5
2017-Mar-20 18:33N 51°03' E 001°43'9 9.3
2017-Mar-20 17:33N 50°56' E 001°32'1312.8
2017-Mar-20 16:33N 50°45' E 001°23'2911.6
2017-Mar-20 14:05N 50°28' E 000°47'1313.2
2017-Mar-20 13:04N 50°24' E 000°26'713.6
2017-Mar-20 12:33N 50°23' E 000°16'1313.3
2017-Mar-20 11:33N 50°19' W 000°04'1413.1
2017-Mar-20 10:29N 50°15' W 000°25'1212.6
2017-Mar-20 09:33N 50°12' W 000°43'1211.8
2017-Mar-20 08:33N 50°09' W 001°01'1111.0
2017-Mar-20 07:33N 50°06' W 001°17'1010.4
2017-Mar-20 06:33N 50°03' W 001°33'1010.0
2017-Mar-20 05:33N 50°00' W 001°48'1110.5
2017-Mar-20 04:33N 49°58' W 002°04'2411.8
2017-Mar-20 02:32N 49°51' W 002°40'1212.7
2017-Mar-20 01:33N 49°48' W 002°58'1312.8
2017-Mar-20 00:33N 49°42' W 003°15'1312.7
2017-Mar-19 23:33N 49°35' W 003°32'5412.8
2017-Mar-19 19:18N 49°07' W 004°43'1012.8
2017-Mar-19 18:32N 49°02' W 004°56'1110.7
2017-Mar-19 17:33N 48°57' W 005°10'1111.2
2017-Mar-19 16:34N 48°52' W 005°26'1411.0
2017-Mar-19 15:17N 48°43' W 005°42'2910.7
2017-Mar-19 12:33N 48°15' W 005°55'1110.3
2017-Mar-19 11:31N 48°04' W 005°56'1110.2
2017-Mar-19 10:25N 47°53' W 005°55'2010.3
2017-Mar-19 08:28N 47°33' W 005°50'1110.3
2017-Mar-19 07:25N 47°23' W 005°46'910.9
2017-Mar-19 06:33N 47°13' W 005°46'1211.8
2017-Mar-19 05:33N 47°02' W 005°51'1111.0
2017-Mar-19 04:33N 46°51' W 005°51'1110.9
2017-Mar-19 03:33N 46°40' W 005°50'1110.8
2017-Mar-19 02:30N 46°29' W 005°49'14910.6
2017-Mar-18 12:28N 43°60' W 005°39'1010.8
2017-Mar-18 11:33N 43°50' W 005°38'1110.7
2017-Mar-18 10:32N 43°39' W 005°37'6 6.2
2017-Mar-18 09:33N 43°34' W 005°41'0 0.0
2017-Mar-18 08:30N 43°34' W 005°41'0 0.0
2017-Mar-18 07:30N 43°34' W 005°41'0 0.0
2017-Mar-18 06:30N 43°34' W 005°41'0 0.0
2017-Mar-18 05:30N 43°34' W 005°41'0 0.0
2017-Mar-18 04:24N 43°34' W 005°41'0 0.0
2017-Mar-18 03:30N 43°34' W 005°41'0 0.0
2017-Mar-18 02:24N 43°34' W 005°41'0 0.0
2017-Mar-18 01:30N 43°34' W 005°41'0 0.0
2017-Mar-17 21:30N 43°34' W 005°41'0 0.0
2017-Mar-17 20:30N 43°34' W 005°41'0 0.0
2017-Mar-17 19:30N 43°34' W 005°41'0 0.0
2017-Mar-17 18:30N 43°34' W 005°41'0 0.0
2017-Mar-17 15:24N 43°34' W 005°41'0 0.0
2017-Mar-17 14:30N 43°34' W 005°41'0 0.0
2017-Mar-17 13:30N 43°34' W 005°41'0 0.0
2017-Mar-17 12:30N 43°34' W 005°41'0 0.0
2017-Mar-17 11:24N 43°34' W 005°41'0 0.0
2017-Mar-17 10:30N 43°34' W 005°41'0 0.0
2017-Mar-17 09:24N 43°34' W 005°41'0 0.0
2017-Mar-17 08:30N 43°34' W 005°41'0 0.0
2017-Mar-17 07:30N 43°34' W 005°41'0 0.0
2017-Mar-17 06:30N 43°34' W 005°41'0 0.0
2017-Mar-17 05:30N 43°34' W 005°41'0 0.0
2017-Mar-17 04:30N 43°34' W 005°41'0 0.0
2017-Mar-17 03:30N 43°34' W 005°41'0 0.0
2017-Mar-17 02:24N 43°34' W 005°41'0 0.0
2017-Mar-17 01:30N 43°34' W 005°41'0 0.0
2017-Mar-16 21:24N 43°34' W 005°41'0 0.0
2017-Mar-16 20:30N 43°34' W 005°41'0 0.0
2017-Mar-16 19:24N 43°34' W 005°41'0 0.0
2017-Mar-16 18:18N 43°34' W 005°41'0 0.0
2017-Mar-16 17:30N 43°34' W 005°41'0 0.0
2017-Mar-16 16:30N 43°34' W 005°41'0 0.0
2017-Mar-16 15:30N 43°34' W 005°41'0 0.0
2017-Mar-16 14:30N 43°34' W 005°41'0 0.0
2017-Mar-16 13:30N 43°34' W 005°41'0 0.0
2017-Mar-16 12:30N 43°34' W 005°41'0 0.0
2017-Mar-16 11:30N 43°34' W 005°41'0 0.0
2017-Mar-16 10:30N 43°34' W 005°41'0 0.0
2017-Mar-16 09:30N 43°34' W 005°41'0 0.0
2017-Mar-16 08:30N 43°34' W 005°41'0 0.0
2017-Mar-16 07:30N 43°34' W 005°41'0 0.0
2017-Mar-16 06:24N 43°34' W 005°41'0 0.0
2017-Mar-16 05:30N 43°34' W 005°41'0 0.0
2017-Mar-16 04:30N 43°34' W 005°41'0 0.0
2017-Mar-16 03:30N 43°34' W 005°41'0 0.0
2017-Mar-16 02:30N 43°34' W 005°41'0 0.0
2017-Mar-16 01:30N 43°34' W 005°41'0 0.0
2017-Mar-15 20:30N 43°34' W 005°41'0 0.0
2017-Mar-15 19:30N 43°34' W 005°41'0 0.0
2017-Mar-15 18:30N 43°34' W 005°41'0 0.0
2017-Mar-15 17:30N 43°34' W 005°41'0 0.0
2017-Mar-15 16:24N 43°34' W 005°41'0 0.0
2017-Mar-15 15:24N 43°34' W 005°41'0 0.0
2017-Mar-15 14:18N 43°34' W 005°41'0 0.0
2017-Mar-15 13:30N 43°34' W 005°41'0 0.0
2017-Mar-15 12:30N 43°34' W 005°41'0 0.0
2017-Mar-15 11:30N 43°34' W 005°41'0 0.0
2017-Mar-15 10:30N 43°34' W 005°41'0 0.0
2017-Mar-15 09:30N 43°34' W 005°41'0 0.0
2017-Mar-15 08:30N 43°34' W 005°41'0 0.0
2017-Mar-15 07:30N 43°34' W 005°41'0 0.0
2017-Mar-15 06:30N 43°34' W 005°41'0 0.0
2017-Mar-15 05:30N 43°34' W 005°41'0 0.0
2017-Mar-15 04:30N 43°34' W 005°41'1 1.1
2017-Mar-15 03:33N 43°35' W 005°40'4 4.0
2017-Mar-15 02:33N 43°39' W 005°40'2 2.0
2017-Mar-15 01:33N 43°41' W 005°39'0 0.5
2017-Mar-15 00:32N 43°41' W 005°39'1 0.5
2017-Mar-14 23:32N 43°41' W 005°38'1 0.3
2017-Mar-14 21:14N 43°42' W 005°38'1 1.5
2017-Mar-14 20:33N 43°41' W 005°37'3 2.6
2017-Mar-14 19:33N 43°39' W 005°35'1 0.6
2017-Mar-14 18:33N 43°39' W 005°34'1 0.5
2017-Mar-14 17:33N 43°39' W 005°33'0 0.3
2017-Mar-14 16:33N 43°39' W 005°33'0 0.3
2017-Mar-14 15:33N 43°40' W 005°33'0 0.4
2017-Mar-14 14:33N 43°40' W 005°34'1 0.5
2017-Mar-14 13:33N 43°40' W 005°34'1 0.6
2017-Mar-14 12:21N 43°41' W 005°34'0 0.6
2017-Mar-14 11:28N 43°41' W 005°35'0 0.5
2017-Mar-14 10:33N 43°42' W 005°35'0 0.4
2017-Mar-14 09:33N 43°42' W 005°36'0 0.3
2017-Mar-14 08:33N 43°42' W 005°36'0 0.2
2017-Mar-14 07:33N 43°42' W 005°36'0 0.2
2017-Mar-14 06:33N 43°42' W 005°36'0 0.3
2017-Mar-14 05:33N 43°43' W 005°36'0 0.4
2017-Mar-14 04:33N 43°43' W 005°37'0 0.5
2017-Mar-14 03:33N 43°44' W 005°37'0 0.3
2017-Mar-14 02:33N 43°44' W 005°37'5 4.8
2017-Mar-14 01:33N 43°41' W 005°32'5 5.2
2017-Mar-14 00:30N 43°38' W 005°25'1 0.8
2017-Mar-13 23:05N 43°39' W 005°26'  

Dump ship's entire track history